Time;durP1;ratioP1;P1;durP2;ratioP2;P2;SDS_P1;SDS_P2;PMS_P1;PMS_P2;Temp;Humidity;BMP_temperature;BMP_pressure;BME280_temperature;BME280_humidity;BME280_pressure;Samples;Min_cycle;Max_cycle;Signal;HPM_P1;HPM_P2
2023/01/14 00:00:29;;;;;;;6.28;2.28;;;;;;;;;;5021247;28;20037;-77
2023/01/14 00:03:14;;;;;;;4.38;1.45;;;;;;;;;;5030270;28;20116;-75
2023/01/14 00:06:00;;;;;;;3.83;1.85;;;;;;;;;;5015521;28;20116;-76
2023/01/14 00:08:45;;;;;;;5.93;2.33;;;;;;;;;;5029677;28;20036;-74
2023/01/14 00:11:46;;;;;;;6.63;2.00;;;;;;;;;;5016718;28;20738;-75
2023/01/14 00:14:31;;;;;;;4.05;1.88;;;;;;;;;;5029225;28;20135;-75
2023/01/14 00:17:17;;;;;;;6.20;1.58;;;;;;;;;;5021292;28;20033;-80
2023/01/14 00:20:02;;;;;;;7.90;2.60;;;;;;;;;;5029548;28;20028;-72
2023/01/14 00:22:47;;;;;;;6.25;1.80;;;;;;;;;;5013076;28;20312;-71
2023/01/14 00:25:36;;;;;;;9.18;2.45;;;;;;;;;;5031535;28;20029;-73
2023/01/14 00:28:21;;;;;;;6.25;2.20;;;;;;;;;;5020478;28;20018;-71
2023/01/14 00:31:11;;;;;;;7.93;2.03;;;;;;;;;;5029420;28;20025;-71
2023/01/14 00:33:56;;;;;;;;;;;;;;;;;;5029688;28;20037;-70
2023/01/14 00:36:42;;;;;;;7.95;1.98;;;;;;;;;;5029024;28;19905;-75
2023/01/14 00:39:28;;;;;;;4.40;1.85;;;;;;;;;;5029166;28;20025;-79
2023/01/14 00:42:13;;;;;;;4.88;2.17;;;;;;;;;;5028059;28;20036;-77
2023/01/14 00:44:58;;;;;;;6.57;1.95;;;;;;;;;;5029233;28;20113;-77
2023/01/14 00:47:43;;;;;;;6.47;1.60;;;;;;;;;;5027529;28;20060;-77
2023/01/14 00:50:28;;;;;;;3.67;1.63;;;;;;;;;;5026558;28;20029;-77
2023/01/14 00:53:14;;;;;;;6.25;1.60;;;;;;;;;;5032206;28;20052;-73
2023/01/14 00:55:59;;;;;;;5.40;2.10;;;;;;;;;;5022579;28;20080;-76
2023/01/14 00:58:54;;;;;;;4.40;1.60;;;;;;;;;;5103793;22;20279;-68
2023/01/14 01:01:39;;;;;;;3.20;2.00;;;;;;;;;;5092456;28;20028;-69
2023/01/14 01:04:24;;;;;;;7.75;2.63;;;;;;;;;;5081849;28;20024;-68
2023/01/14 01:07:09;;;;;;;2.35;1.50;;;;;;;;;;5105498;28;20028;-69
2023/01/14 01:09:55;;;;;;;5.93;1.85;;;;;;;;;;5102936;28;20032;-67
2023/01/14 01:12:43;;;;;;;3.95;1.63;;;;;;;;;;5103392;28;20030;-75
2023/01/14 01:15:31;;;;;;;5.75;1.50;;;;;;;;;;5099123;28;20040;-74
2023/01/14 01:18:17;;;;;;;5.80;1.88;;;;;;;;;;5072011;28;20032;-74
2023/01/14 01:21:11;;;;;;;5.00;1.58;;;;;;;;;;5108986;28;20023;-75
2023/01/14 01:23:56;;;;;;;6.05;1.77;;;;;;;;;;5098945;28;20035;-75
2023/01/14 01:26:45;;;;;;;10.52;1.88;;;;;;;;;;5087627;28;20019;-75
2023/01/14 01:29:31;;;;;;;6.60;1.70;;;;;;;;;;5092791;28;20459;-74
2023/01/14 01:32:16;;;;;;;5.72;1.45;;;;;;;;;;5087446;28;20036;-75
2023/01/14 01:35:01;;;;;;;4.30;1.65;;;;;;;;;;5088123;28;20375;-72
2023/01/14 01:37:46;;;;;;;5.18;1.80;;;;;;;;;;5073772;28;20207;-72
2023/01/14 01:40:32;;;;;;;5.70;1.52;;;;;;;;;;5088612;28;20031;-71
2023/01/14 01:43:17;;;;;;;4.07;1.60;;;;;;;;;;5092620;28;20030;-73
2023/01/14 01:46:02;;;;;;;8.27;1.98;;;;;;;;;;5088631;28;20028;-73
2023/01/14 01:48:48;;;;;;;6.30;2.63;;;;;;;;;;5087387;28;20031;-74
2023/01/14 01:51:36;;;;;;;7.55;2.20;;;;;;;;;;5087875;28;20039;-71
2023/01/14 01:54:24;;;;;;;4.38;1.88;;;;;;;;;;5087930;28;20039;-79
2023/01/14 01:57:10;;;;;;;5.65;1.80;;;;;;;;;;5086294;28;20168;-77
2023/01/14 01:59:57;;;;;;;6.82;2.00;;;;;;;;;;5091396;28;20028;-78
2023/01/14 02:02:43;;;;;;;5.85;1.73;;;;;;;;;;5087741;28;20023;-79
2023/01/14 02:05:28;;;;;;;6.65;1.77;;;;;;;;;;5088026;28;20046;-79
2023/01/14 02:08:14;;;;;;;3.53;2.08;;;;;;;;;;5087398;28;20107;-74
2023/01/14 02:11:08;;;;;;;4.35;1.40;;;;;;;;;;5082775;28;20031;-69
2023/01/14 02:14:12;;;;;;;5.82;1.70;;;;;;;;;;5087355;28;20028;-68
2023/01/14 02:17:04;;;;;;;6.72;2.90;;;;;;;;;;5087504;28;20035;-69
2023/01/14 02:20:08;;;;;;;9.30;1.92;;;;;;;;;;5078310;28;20043;-69
2023/01/14 02:23:08;;;;;;;8.77;2.10;;;;;;;;;;5087491;28;20040;-68
2023/01/14 02:26:03;;;;;;;4.25;1.75;;;;;;;;;;5087279;28;20071;-79
2023/01/14 02:29:07;;;;;;;3.38;1.63;;;;;;;;;;5087231;28;20119;-69
2023/01/14 02:32:08;;;;;;;11.43;3.55;;;;;;;;;;5087769;28;20012;-68
2023/01/14 02:34:53;;;;;;;9.55;3.15;;;;;;;;;;5086832;28;20031;-68
2023/01/14 02:37:44;;;;;;;6.13;1.80;;;;;;;;;;5085267;28;20020;-66
2023/01/14 02:40:36;;;;;;;5.97;1.95;;;;;;;;;;5080034;28;20471;-69
2023/01/14 02:46:48;;;;;;;5.65;2.10;;;;;;;;;;5086753;28;20558;-72
2023/01/14 02:49:35;;;;;;;3.35;1.52;;;;;;;;;;5086666;28;20047;-72
2023/01/14 02:52:21;;;;;;;10.00;3.08;;;;;;;;;;5087461;28;20042;-72
2023/01/14 02:55:25;;;;;;;5.60;1.45;;;;;;;;;;5087577;28;20111;-71
2023/01/14 02:58:28;;;;;;;3.92;1.60;;;;;;;;;;5086657;28;20040;-72
2023/01/14 03:01:14;;;;;;;5.85;1.20;;;;;;;;;;5087011;28;20069;-72
2023/01/14 03:03:59;;;;;;;6.13;2.47;;;;;;;;;;5094770;28;20241;-67
2023/01/14 03:07:04;;;;;;;7.38;1.55;;;;;;;;;;5087284;28;20414;-77
2023/01/14 03:09:53;;;;;;;4.50;2.20;;;;;;;;;;5087062;28;20024;-78
2023/01/14 03:12:38;;;;;;;7.13;1.80;;;;;;;;;;5087158;28;20030;-78
2023/01/14 03:15:45;;;;;;;4.45;1.70;;;;;;;;;;5072461;28;20092;-77
2023/01/14 03:18:34;;;;;;;3.28;1.40;;;;;;;;;;5068724;28;20035;-76
2023/01/14 03:21:35;;;;;;;4.00;1.35;;;;;;;;;;5090990;28;20016;-66
2023/01/14 03:24:32;;;;;;;4.93;2.17;;;;;;;;;;5099112;28;20028;-68
2023/01/14 03:27:23;;;;;;;5.82;2.03;;;;;;;;;;5090758;28;20027;-69
2023/01/14 03:30:10;;;;;;;6.47;2.60;;;;;;;;;;5089909;28;20073;-69
2023/01/14 03:33:08;;;;;;;9.63;1.98;;;;;;;;;;5090204;28;20438;-69
2023/01/14 03:35:55;;;;;;;3.53;1.48;;;;;;;;;;5084644;28;20027;-70
2023/01/14 03:38:42;;;;;;;4.78;2.33;;;;;;;;;;5090346;28;20388;-69
2023/01/14 03:44:32;;;;;;;10.73;2.05;;;;;;;;;;5090054;28;20032;-67
2023/01/14 03:47:17;;;;;;;7.05;1.67;;;;;;;;;;5089997;28;20028;-68
2023/01/14 03:50:07;;;;;;;8.68;2.83;;;;;;;;;;5080027;28;20123;-68
2023/01/14 03:53:00;;;;;;;5.70;1.55;;;;;;;;;;5089891;28;20352;-70
2023/01/14 03:55:48;;;;;;;8.25;1.73;;;;;;;;;;5090479;28;20032;-68
2023/01/14 03:58:37;;;;;;;5.80;1.27;;;;;;;;;;5087031;28;20052;-68
2023/01/14 04:01:42;;;;;;;6.33;1.57;;;;;;;;;;5087782;28;20034;-74
2023/01/14 04:04:27;;;;;;;4.43;1.27;;;;;;;;;;5075806;28;20045;-74
2023/01/14 04:07:12;;;;;;;8.35;1.73;;;;;;;;;;5083299;28;20035;-74
2023/01/14 04:09:58;;;;;;;6.82;2.00;;;;;;;;;;5076700;28;20036;-74
2023/01/14 04:15:51;;;;;;;12.73;1.83;;;;;;;;;;5072875;28;20040;-71
2023/01/14 04:18:37;;;;;;;8.45;1.35;;;;;;;;;;5086408;28;20047;-67
2023/01/14 04:21:22;;;;;;;5.53;1.20;;;;;;;;;;5089606;28;20035;-70
2023/01/14 04:24:07;;;;;;;6.63;1.38;;;;;;;;;;5084922;28;20028;-71
2023/01/14 04:26:52;;;;;;;6.72;1.42;;;;;;;;;;5074948;28;20028;-71
2023/01/14 04:29:37;;;;;;;6.80;1.67;;;;;;;;;;5088504;28;20475;-74
2023/01/14 04:32:23;;;;;;;4.97;1.50;;;;;;;;;;5088136;28;20024;-73
2023/01/14 04:35:08;;;;;;;6.68;2.80;;;;;;;;;;5088374;28;20483;-72
2023/01/14 04:37:54;;;;;;;5.18;1.73;;;;;;;;;;5089240;28;20528;-74
2023/01/14 04:40:39;;;;;;;3.33;1.30;;;;;;;;;;5093689;28;20418;-76
2023/01/14 04:43:24;;;;;;;4.72;1.17;;;;;;;;;;5076664;28;20032;-75
2023/01/14 04:46:09;;;;;;;4.03;1.10;;;;;;;;;;5088886;28;20411;-73
2023/01/14 04:48:55;;;;;;;8.50;1.85;;;;;;;;;;5088715;28;20043;-74
2023/01/14 04:51:40;;;;;;;9.10;1.75;;;;;;;;;;5074890;28;20114;-73
2023/01/14 04:54:25;;;;;;;5.13;1.27;;;;;;;;;;5088724;28;20040;-76
2023/01/14 04:57:11;;;;;;;3.58;1.20;;;;;;;;;;5088919;28;20155;-75
2023/01/14 04:59:56;;;;;;;4.05;1.70;;;;;;;;;;5088359;28;20051;-73
2023/01/14 05:02:41;;;;;;;5.82;1.70;;;;;;;;;;5089164;28;20386;-74
2023/01/14 05:05:26;;;;;;;3.85;1.40;;;;;;;;;;5088553;28;20044;-73
2023/01/14 05:08:12;;;;;;;3.63;1.48;;;;;;;;;;5088700;28;20744;-75
2023/01/14 05:10:57;;;;;;;3.10;1.20;;;;;;;;;;5093076;28;20028;-80
2023/01/14 05:13:42;;;;;;;5.97;1.48;;;;;;;;;;5090741;28;20024;-76
2023/01/14 05:16:28;;;;;;;6.00;2.85;;;;;;;;;;5088499;28;20032;-76
2023/01/14 05:19:13;;;;;;;3.90;1.50;;;;;;;;;;5082896;28;20039;-76
2023/01/14 05:21:58;;;;;;;2.97;1.50;;;;;;;;;;5072202;28;20036;-76
2023/01/14 05:24:43;;;;;;;5.43;1.52;;;;;;;;;;5080362;28;20028;-75
2023/01/14 05:27:29;;;;;;;6.03;1.30;;;;;;;;;;5088585;28;20047;-75
2023/01/14 05:30:14;;;;;;;4.30;1.17;;;;;;;;;;5074130;28;20119;-72
2023/01/14 05:32:59;;;;;;;2.28;1.10;;;;;;;;;;5078585;28;20024;-75
2023/01/14 05:35:45;;;;;;;4.22;1.40;;;;;;;;;;5087765;28;20050;-76
2023/01/14 05:38:30;;;;;;;3.25;2.08;;;;;;;;;;5088413;28;20043;-76
2023/01/14 05:41:15;;;;;;;3.67;1.20;;;;;;;;;;5086607;28;20032;-76
2023/01/14 05:47:05;;;;;;;6.82;1.77;;;;;;;;;;5078232;28;20252;-75
2023/01/14 05:49:50;;;;;;;8.15;2.33;;;;;;;;;;5087686;28;20012;-74
2023/01/14 05:52:35;;;;;;;2.42;1.60;;;;;;;;;;5088016;28;20429;-75
2023/01/14 05:55:20;;;;;;;4.25;1.65;;;;;;;;;;5083660;28;20065;-75
2023/01/14 05:58:06;;;;;;;9.75;1.80;;;;;;;;;;5087438;28;20127;-73
2023/01/14 06:06:59;;;;;;;7.93;2.00;;;;;;;;;;5087577;28;20040;-72
2023/01/14 06:09:45;;;;;;;6.03;2.17;;;;;;;;;;5085348;28;20012;-69
2023/01/14 06:12:57;;;;;;;4.05;1.42;;;;;;;;;;5087565;28;20108;-67
2023/01/14 06:15:45;;;;;;;5.97;2.05;;;;;;;;;;5088492;28;20024;-66
2023/01/14 06:18:37;;;;;;;4.07;1.47;;;;;;;;;;5087140;28;20528;-67
2023/01/14 06:21:26;;;;;;;7.90;2.05;;;;;;;;;;5087736;28;20278;-69
2023/01/14 06:24:11;;;;;;;4.28;1.58;;;;;;;;;;5087310;28;20143;-67
2023/01/14 06:26:56;;;;;;;2.75;1.40;;;;;;;;;;5087289;28;20051;-75
2023/01/14 06:29:42;;;;;;;5.15;1.45;;;;;;;;;;5072994;28;20031;-74
2023/01/14 06:32:27;;;;;;;7.28;2.30;;;;;;;;;;5087547;28;20485;-75
2023/01/14 06:35:12;;;;;;;6.82;1.33;;;;;;;;;;5086742;28;20035;-75
2023/01/14 06:37:57;;;;;;;4.25;1.45;;;;;;;;;;5087508;28;20063;-75
2023/01/14 06:40:43;;;;;;;4.53;1.60;;;;;;;;;;5073020;28;20020;-75
2023/01/14 06:43:28;;;;;;;3.83;1.50;;;;;;;;;;5062159;28;20185;-73
2023/01/14 06:46:14;;;;;;;3.55;1.50;;;;;;;;;;5087630;28;20511;-74
2023/01/14 06:48:59;;;;;;;4.60;1.77;;;;;;;;;;5092590;28;20028;-75
2023/01/14 06:51:45;;;;;;;5.28;1.88;;;;;;;;;;5073285;28;20028;-74
2023/01/14 06:54:30;;;;;;;5.57;2.03;;;;;;;;;;5074066;28;20028;-73
2023/01/14 06:57:15;;;;;;;5.20;1.88;;;;;;;;;;5090958;28;20057;-74
2023/01/14 07:00:00;;;;;;;22.48;2.60;;;;;;;;;;5090495;28;20050;-73
2023/01/14 07:02:46;;;;;;;4.47;1.98;;;;;;;;;;5076957;28;20051;-73
2023/01/14 07:05:31;;;;;;;15.13;3.15;;;;;;;;;;5089857;28;20050;-75
2023/01/14 07:08:16;;;;;;;7.82;2.08;;;;;;;;;;5091256;28;20078;-73
2023/01/14 07:11:02;;;;;;;5.28;2.40;;;;;;;;;;5089954;28;20104;-73
2023/01/14 07:13:47;;;;;;;5.95;1.55;;;;;;;;;;5090993;28;20080;-72
2023/01/14 07:16:32;;;;;;;6.65;2.95;;;;;;;;;;5076354;28;20068;-73
2023/01/14 07:19:18;;;;;;;8.73;1.65;;;;;;;;;;5096187;28;20464;-72
2023/01/14 07:22:03;;;;;;;7.53;1.98;;;;;;;;;;5091766;28;20680;-69
2023/01/14 07:24:48;;;;;;;8.65;2.40;;;;;;;;;;5090425;28;20063;-76
2023/01/14 07:27:34;;;;;;;7.18;2.13;;;;;;;;;;5078393;28;20093;-76
2023/01/14 07:30:19;;;;;;;4.88;1.70;;;;;;;;;;5086568;28;20016;-75
2023/01/14 07:33:04;;;;;;;4.30;1.50;;;;;;;;;;5081737;28;20038;-77
2023/01/14 07:35:53;;;;;;;3.72;1.52;;;;;;;;;;5076062;28;20031;-76
2023/01/14 07:38:38;;;;;;;9.80;2.03;;;;;;;;;;5076590;28;20115;-76
2023/01/14 07:41:23;;;;;;;4.85;1.60;;;;;;;;;;5067017;28;20032;-75
2023/01/14 07:44:09;;;;;;;6.45;1.80;;;;;;;;;;5090555;28;20031;-76
2023/01/14 07:46:54;;;;;;;8.13;2.80;;;;;;;;;;5089885;28;20047;-74
2023/01/14 07:49:40;;;;;;;7.03;1.90;;;;;;;;;;5090139;28;20020;-75
2023/01/14 07:52:25;;;;;;;6.72;3.35;;;;;;;;;;5098949;28;20036;-76
2023/01/14 07:55:10;;;;;;;8.02;2.47;;;;;;;;;;5090065;28;20559;-74
2023/01/14 07:57:57;;;;;;;6.25;2.03;;;;;;;;;;5089900;28;20046;-72
2023/01/14 08:00:42;;;;;;;11.07;2.20;;;;;;;;;;5089064;28;20050;-77
2023/01/14 08:03:28;;;;;;;4.85;1.70;;;;;;;;;;5090102;28;20118;-78
2023/01/14 08:06:13;;;;;;;7.20;2.03;;;;;;;;;;5088388;28;20047;-78
2023/01/14 08:09:00;;;;;;;8.00;1.75;;;;;;;;;;5078445;28;20024;-77
2023/01/14 08:11:45;;;;;;;11.10;2.90;;;;;;;;;;5089424;28;20041;-78
2023/01/14 08:14:30;;;;;;;5.45;1.67;;;;;;;;;;5090177;28;20051;-77
2023/01/14 08:17:15;;;;;;;6.05;1.95;;;;;;;;;;5089620;28;20024;-69
2023/01/14 08:20:01;;;;;;;4.80;2.00;;;;;;;;;;5089028;28;20040;-75
2023/01/14 08:22:46;;;;;;;6.68;2.10;;;;;;;;;;5093006;28;20024;-75
2023/01/14 08:25:31;;;;;;;9.20;2.00;;;;;;;;;;5092569;28;20719;-75
2023/01/14 08:28:16;;;;;;;14.15;2.83;;;;;;;;;;5089860;28;20111;-74
2023/01/14 08:31:03;;;;;;;7.30;2.47;;;;;;;;;;5089558;28;20161;-74
2023/01/14 08:33:48;;;;;;;6.13;2.13;;;;;;;;;;5089526;28;20032;-69
2023/01/14 08:36:34;;;;;;;4.60;2.28;;;;;;;;;;5089002;28;20387;-69
2023/01/14 08:39:19;;;;;;;7.45;2.20;;;;;;;;;;5089464;28;20518;-77
2023/01/14 08:42:04;;;;;;;9.88;2.22;;;;;;;;;;5074791;28;20440;-75
2023/01/14 08:44:49;;;;;;;11.82;2.10;;;;;;;;;;5075053;28;20402;-74
2023/01/14 08:47:35;;;;;;;11.00;2.85;;;;;;;;;;5070181;28;20040;-74
2023/01/14 08:50:20;;;;;;;8.30;2.00;;;;;;;;;;5074660;28;20076;-77
2023/01/14 08:53:05;;;;;;;7.32;2.47;;;;;;;;;;5088906;28;20024;-74
2023/01/14 08:55:54;;;;;;;6.88;2.00;;;;;;;;;;5096279;28;20016;-73
2023/01/14 08:58:39;;;;;;;7.78;1.95;;;;;;;;;;5075931;28;20048;-72
2023/01/14 09:01:25;;;;;;;8.18;2.40;;;;;;;;;;5073431;28;20040;-71
2023/01/14 09:04:10;;;;;;;8.82;2.20;;;;;;;;;;5088345;28;20035;-72
2023/01/14 09:19:15;;;;;;;7.90;2.30;;;;;;;;;;5077657;28;20543;-74
2023/01/14 09:22:00;;;;;;;9.90;1.98;;;;;;;;;;5087983;28;20016;-74
2023/01/14 09:24:46;;;;;;;10.13;3.28;;;;;;;;;;5088811;28;20074;-73
2023/01/14 09:27:31;;;;;;;7.43;2.15;;;;;;;;;;5094626;28;20016;-76
2023/01/14 09:30:19;;;;;;;6.35;1.77;;;;;;;;;;5088623;28;20028;-72
2023/01/14 09:33:06;;;;;;;6.90;2.17;;;;;;;;;;5088586;28;20016;-75
2023/01/14 09:35:51;;;;;;;7.28;2.58;;;;;;;;;;5087635;28;20028;-76
2023/01/14 09:38:36;;;;;;;10.07;2.88;;;;;;;;;;5088413;28;20024;-76
2023/01/14 09:41:45;;;;;;;7.00;2.33;;;;;;;;;;5085576;28;20493;-75
2023/01/14 09:44:30;;;;;;;10.18;2.85;;;;;;;;;;5085063;28;20521;-75
2023/01/14 09:47:17;;;;;;;7.28;2.58;;;;;;;;;;5087787;28;20060;-70
2023/01/14 09:50:05;;;;;;;12.32;3.25;;;;;;;;;;5087660;28;20039;-73
2023/01/14 09:53:04;;;;;;;4.25;2.10;;;;;;;;;;5087775;28;20028;-68
2023/01/14 09:55:56;;;;;;;8.35;2.50;;;;;;;;;;5087692;28;20050;-70
2023/01/14 09:58:56;;;;;;;11.43;3.53;;;;;;;;;;5080766;28;20284;-68
2023/01/14 10:01:56;;;;;;;12.57;3.22;;;;;;;;;;5074838;28;20454;-69
2023/01/14 10:05:01;;;;;;;8.07;3.08;;;;;;;;;;5087468;28;20035;-67
2023/01/14 10:07:47;;;;;;;11.82;2.60;;;;;;;;;;5087799;28;20042;-78
2023/01/14 10:10:38;;;;;;;4.82;1.80;;;;;;;;;;5087462;28;20028;-76
2023/01/14 10:13:32;;;;;;;6.28;1.60;;;;;;;;;;5087202;28;20777;-75
2023/01/14 10:16:20;;;;;;;4.85;1.88;;;;;;;;;;5068864;28;20040;-72
2023/01/14 10:19:26;;;;;;;4.70;2.22;;;;;;;;;;5075224;28;20558;-72
2023/01/14 10:22:14;;;;;;;4.57;1.60;;;;;;;;;;5087574;28;20394;-71
2023/01/14 10:24:59;;;;;;;2.92;1.20;;;;;;;;;;5087891;28;20050;-72
2023/01/14 10:27:48;;;;;;;6.35;2.38;;;;;;;;;;5087303;28;20031;-69
2023/01/14 10:30:34;;;;;;;4.55;1.45;;;;;;;;;;5089149;28;20044;-69
2023/01/14 10:33:21;;;;;;;5.22;1.48;;;;;;;;;;5084798;28;20101;-68
2023/01/14 10:36:13;;;;;;;4.75;1.73;;;;;;;;;;5087141;28;20032;-66
2023/01/14 10:38:59;;;;;;;4.80;1.50;;;;;;;;;;5087419;28;20070;-67
2023/01/14 10:41:51;;;;;;;4.47;1.85;;;;;;;;;;5080657;28;20036;-69
2023/01/14 10:44:38;;;;;;;6.68;1.70;;;;;;;;;;5085198;28;20514;-68
2023/01/14 10:47:24;;;;;;;5.93;2.15;;;;;;;;;;5086740;28;20036;-68
2023/01/14 10:50:15;;;;;;;5.05;1.90;;;;;;;;;;5084682;28;20055;-68
2023/01/14 10:53:36;;;;;;;4.18;1.10;;;;;;;;;;5072827;28;20737;-68
2023/01/14 10:56:26;;;;;;;4.90;1.70;;;;;;;;;;5059997;28;20033;-69
2023/01/14 10:59:18;;;;;;;5.05;1.48;;;;;;;;;;5065039;28;20048;-69
2023/01/14 11:02:03;;;;;;;5.47;1.25;;;;;;;;;;5086947;28;20107;-74
2023/01/14 11:04:49;;;;;;;4.55;2.30;;;;;;;;;;5079986;28;20064;-75
2023/01/14 11:07:37;;;;;;;3.50;1.15;;;;;;;;;;5087194;28;20038;-74
2023/01/14 11:10:23;;;;;;;2.65;1.17;;;;;;;;;;5073045;28;20027;-74
2023/01/14 11:13:13;;;;;;;10.55;1.77;;;;;;;;;;5086774;28;20023;-74
2023/01/14 11:15:58;;;;;;;5.00;1.08;;;;;;;;;;5086986;28;20477;-74
2023/01/14 11:18:48;;;;;;;2.47;1.30;;;;;;;;;;5085779;28;20483;-75
2023/01/14 11:21:39;;;;;;;2.63;1.15;;;;;;;;;;5084640;28;20031;-75
2023/01/14 11:24:29;;;;;;;2.28;1.02;;;;;;;;;;5049429;22;20053;-75
2023/01/14 11:27:14;;;;;;;;;;;;;;;;;;5046438;28;20030;-73
2023/01/14 11:30:00;;;;;;;1.90;1.20;;;;;;;;;;5031844;28;20352;-73
2023/01/14 11:32:49;;;;;;;3.67;1.00;;;;;;;;;;5045955;28;20067;-74
2023/01/14 11:35:35;;;;;;;1.65;0.95;;;;;;;;;;5038362;28;20097;-74
2023/01/14 11:38:25;;;;;;;1.67;1.08;;;;;;;;;;5032753;28;20072;-67
2023/01/14 11:41:30;;;;;;;3.42;1.15;;;;;;;;;;5033360;28;20126;-73
2023/01/14 11:44:19;;;;;;;6.88;1.20;;;;;;;;;;5035554;28;20460;-73
2023/01/14 11:47:12;;;;;;;3.30;1.20;;;;;;;;;;5035152;28;20104;-73
2023/01/14 11:50:16;;;;;;;2.78;1.20;;;;;;;;;;5035092;28;20021;-73
2023/01/14 11:53:05;;;;;;;3.45;1.02;;;;;;;;;;5035552;28;20036;-74
2023/01/14 11:55:51;;;;;;;2.72;1.23;;;;;;;;;;5035339;28;20029;-76
2023/01/14 11:58:36;;;;;;;4.20;1.10;;;;;;;;;;5048954;28;20026;-74
2023/01/14 12:01:22;;;;;;;5.80;1.20;;;;;;;;;;5035465;28;20021;-76
2023/01/14 12:04:16;;;;;;;3.85;1.42;;;;;;;;;;5049328;28;20032;-74
2023/01/14 12:07:03;;;;;;;3.58;1.27;;;;;;;;;;5038971;28;20162;-74
2023/01/14 12:09:51;;;;;;;3.85;1.60;;;;;;;;;;5051776;28;20017;-73
2023/01/14 12:19:18;;;;;;;4.90;2.20;;;;;;;;;;5035165;28;20029;-74
2023/01/14 12:22:03;;;;;;;4.60;1.95;;;;;;;;;;5048950;28;20025;-72
2023/01/14 12:24:54;;;;;;;3.72;1.85;;;;;;;;;;5034035;28;20051;-73
2023/01/14 12:27:42;;;;;;;6.93;2.13;;;;;;;;;;5034681;28;20036;-72
2023/01/14 12:30:32;;;;;;;3.72;1.80;;;;;;;;;;5048258;28;20489;-72
2023/01/14 12:33:17;;;;;;;;;;;;;;;;;;5036614;28;20026;-73
2023/01/14 12:36:19;;;;;;;2.60;1.20;;;;;;;;;;5035495;28;19905;-67
2023/01/14 12:45:44;;;;;;;3.30;1.35;;;;;;;;;;5036387;28;20532;-69
2023/01/14 12:48:30;;;;;;;4.78;1.70;;;;;;;;;;5035308;28;20048;-68
2023/01/14 12:51:18;;;;;;;4.45;1.83;;;;;;;;;;5034127;28;20029;-73
2023/01/14 12:54:06;;;;;;;3.25;1.80;;;;;;;;;;5046326;28;20358;-71
2023/01/14 12:56:53;;;;;;;3.80;1.67;;;;;;;;;;5033995;28;20104;-75
2023/01/14 12:59:43;;;;;;;3.08;1.75;;;;;;;;;;5046366;28;20025;-74
2023/01/14 13:02:28;;;;;;;;;;;;;;;;;;5034224;28;20021;-75
2023/01/14 13:05:16;;;;;;;4.93;1.52;;;;;;;;;;5034940;28;19909;-75
2023/01/14 13:08:04;;;;;;;3.80;1.33;;;;;;;;;;5033738;28;20480;-75
2023/01/14 13:11:01;;;;;;;3.53;1.30;;;;;;;;;;5036151;28;20044;-75
2023/01/14 13:13:51;;;;;;;5.07;1.50;;;;;;;;;;5050013;28;20032;-76
2023/01/14 13:16:38;;;;;;;4.03;1.33;;;;;;;;;;5033777;28;20104;-78
2023/01/14 13:19:23;;;;;;;5.18;2.75;;;;;;;;;;5045908;28;20112;-78
2023/01/14 13:22:09;;;;;;;5.63;1.75;;;;;;;;;;5034249;28;20100;-77
2023/01/14 13:25:08;;;;;;;2.20;1.10;;;;;;;;;;5034592;28;20053;-76
2023/01/14 13:27:54;;;;;;;5.53;1.25;;;;;;;;;;5033832;28;20519;-83
2023/01/14 13:30:41;;;;;;;2.03;1.15;;;;;;;;;;5035124;28;20032;-69
2023/01/14 13:33:28;;;;;;;2.95;1.60;;;;;;;;;;5034752;28;20029;-73
2023/01/14 13:36:17;;;;;;;3.50;1.63;;;;;;;;;;5045613;28;20114;-73
2023/01/14 13:39:04;;;;;;;4.57;1.27;;;;;;;;;;5034603;28;20361;-72
2023/01/14 13:41:51;;;;;;;3.28;1.33;;;;;;;;;;5034777;28;20029;-73
2023/01/14 13:44:37;;;;;;;3.88;1.35;;;;;;;;;;5040755;28;20026;-72
2023/01/14 13:47:36;;;;;;;9.77;2.08;;;;;;;;;;5034420;28;20056;-74
2023/01/14 13:50:23;;;;;;;4.38;2.13;;;;;;;;;;5033105;28;20139;-69
2023/01/14 13:53:29;;;;;;;6.47;2.33;;;;;;;;;;5034485;28;20461;-69
2023/01/14 13:56:19;;;;;;;4.22;1.52;;;;;;;;;;5034543;28;20021;-69
2023/01/14 13:59:06;;;;;;;2.92;1.67;;;;;;;;;;5032677;28;20033;-69
2023/01/14 14:01:51;;;;;;;4.07;1.75;;;;;;;;;;5034550;28;20022;-71
2023/01/14 14:04:55;;;;;;;4.13;1.40;;;;;;;;;;5032205;28;20104;-74
2023/01/14 14:07:43;;;;;;;4.72;1.67;;;;;;;;;;5032996;28;20414;-75
2023/01/14 14:10:34;;;;;;;4.70;1.90;;;;;;;;;;5033302;28;20029;-71
2023/01/14 14:16:47;;;;;;;4.47;1.83;;;;;;;;;;5042323;28;20037;-70
2023/01/14 14:19:54;;;;;;;3.38;1.48;;;;;;;;;;5032842;28;20487;-70
2023/01/14 14:22:45;;;;;;;2.42;1.20;;;;;;;;;;5032303;28;20072;-70
2023/01/14 14:25:36;;;;;;;4.97;2.75;;;;;;;;;;5034165;28;20017;-73
2023/01/14 14:28:24;;;;;;;3.72;1.20;;;;;;;;;;5032874;28;20401;-73
2023/01/14 14:31:14;;;;;;;4.53;1.52;;;;;;;;;;5044962;28;20021;-73
2023/01/14 14:33:59;;;;;;;;;;;;;;;;;;5032984;28;20108;-74
2023/01/14 14:36:47;;;;;;;2.40;1.30;;;;;;;;;;5033542;28;19912;-73
2023/01/14 14:39:37;;;;;;;3.65;2.08;;;;;;;;;;5034072;28;20022;-73
2023/01/14 14:42:23;;;;;;;4.45;1.50;;;;;;;;;;5033814;28;20026;-74
2023/01/14 14:45:24;;;;;;;5.03;1.77;;;;;;;;;;5032539;28;20037;-66
2023/01/14 14:48:19;;;;;;;5.25;2.00;;;;;;;;;;5041302;28;20128;-68
2023/01/14 14:51:23;;;;;;;5.18;2.22;;;;;;;;;;5032569;28;20026;-68
2023/01/14 14:54:23;;;;;;;7.28;2.20;;;;;;;;;;5034229;28;20017;-67
2023/01/14 14:57:12;;;;;;;5.20;1.42;;;;;;;;;;5033172;28;20022;-67
2023/01/14 14:59:58;;;;;;;;;;;;;;;;;;5034401;28;20033;-73
2023/01/14 15:02:43;;;;;;;6.40;1.80;;;;;;;;;;5032743;28;19905;-76
2023/01/14 15:05:32;;;;;;;5.00;1.42;;;;;;;;;;5032743;28;20022;-76
2023/01/14 15:08:24;;;;;;;4.50;1.20;;;;;;;;;;5033630;28;20040;-75
2023/01/14 15:11:11;;;;;;;3.38;1.30;;;;;;;;;;5033667;28;20049;-75
2023/01/14 15:13:57;;;;;;;3.80;1.48;;;;;;;;;;5032277;28;20116;-75
2023/01/14 15:16:48;;;;;;;1.95;1.10;;;;;;;;;;5036032;28;20025;-75
2023/01/14 15:19:36;;;;;;;2.00;1.10;;;;;;;;;;5042904;28;20025;-74
2023/01/14 15:22:24;;;;;;;4.55;1.20;;;;;;;;;;5036225;28;20420;-75
2023/01/14 15:25:11;;;;;;;2.07;1.10;;;;;;;;;;5037223;28;20057;-75
2023/01/14 15:27:56;;;;;;;2.83;1.13;;;;;;;;;;5037211;28;20037;-74
2023/01/14 15:30:52;;;;;;;1.75;1.08;;;;;;;;;;5035504;28;20542;-75
2023/01/14 15:33:37;;;;;;;4.57;1.58;;;;;;;;;;5037029;28;20104;-75
2023/01/14 15:36:23;;;;;;;1.85;0.90;;;;;;;;;;5036389;28;20017;-75
2023/01/14 15:39:13;;;;;;;3.80;1.20;;;;;;;;;;5035578;28;20378;-70
2023/01/14 15:42:01;;;;;;;1.77;1.00;;;;;;;;;;5035473;28;20376;-68
2023/01/14 15:44:48;;;;;;;2.25;1.00;;;;;;;;;;5037207;28;20075;-67
2023/01/14 15:47:36;;;;;;;1.98;1.20;;;;;;;;;;5035316;28;20080;-69
2023/01/14 15:50:26;;;;;;;1.20;0.98;;;;;;;;;;5035084;28;20517;-69
2023/01/14 15:53:15;;;;;;;3.03;1.60;;;;;;;;;;5042245;28;20112;-67
2023/01/14 15:56:03;;;;;;;2.47;1.00;;;;;;;;;;5035698;28;20409;-83
2023/01/14 15:58:55;;;;;;;2.30;0.90;;;;;;;;;;5036892;28;20030;-70
2023/01/14 16:01:47;;;;;;;1.58;0.73;;;;;;;;;;5035567;28;20021;-71
2023/01/14 16:04:33;;;;;;;2.78;1.08;;;;;;;;;;5036728;28;20048;-71
2023/01/14 16:07:21;;;;;;;3.88;1.10;;;;;;;;;;5036420;28;20131;-70
2023/01/14 16:10:08;;;;;;;2.05;1.30;;;;;;;;;;5036662;28;20026;-70
2023/01/14 16:12:53;;;;;;;0.60;0.60;;;;;;;;;;5034702;28;20072;-70
2023/01/14 16:15:40;;;;;;;2.30;0.80;;;;;;;;;;5036064;28;20109;-77
2023/01/14 16:18:26;;;;;;;1.75;0.70;;;;;;;;;;5036102;28;20468;-68
2023/01/14 16:21:11;;;;;;;1.80;0.70;;;;;;;;;;5034586;28;20022;-69
2023/01/14 16:23:57;;;;;;;2.85;1.27;;;;;;;;;;5041579;28;20050;-68
2023/01/14 16:26:42;;;;;;;1.05;0.70;;;;;;;;;;5033530;28;20037;-69
2023/01/14 16:29:28;;;;;;;1.65;0.95;;;;;;;;;;5036240;28;20156;-67
2023/01/14 16:32:14;;;;;;;4.10;1.52;;;;;;;;;;5034478;28;20431;-71
2023/01/14 16:34:59;;;;;;;2.15;1.27;;;;;;;;;;5034002;28;20416;-77
2023/01/14 16:37:46;;;;;;;2.35;1.40;;;;;;;;;;5034422;28;20017;-79
2023/01/14 16:40:32;;;;;;;3.25;1.20;;;;;;;;;;5034179;28;20425;-78
2023/01/14 16:43:18;;;;;;;3.45;1.38;;;;;;;;;;5035976;28;20025;-78
2023/01/14 16:46:07;;;;;;;2.88;1.20;;;;;;;;;;5034231;28;20094;-78
2023/01/14 16:48:52;;;;;;;3.05;1.35;;;;;;;;;;5046454;28;20385;-78
2023/01/14 16:51:40;;;;;;;5.35;1.20;;;;;;;;;;5034250;28;20059;-82
2023/01/14 16:54:26;;;;;;;2.22;1.20;;;;;;;;;;5037149;28;20017;-83
2023/01/14 16:57:11;;;;;;;3.15;1.48;;;;;;;;;;5039422;28;20025;-82
2023/01/14 16:59:57;;;;;;;2.83;1.13;;;;;;;;;;5034222;28;20040;-69
2023/01/14 17:02:43;;;;;;;1.88;1.08;;;;;;;;;;5033526;28;20044;-72
2023/01/14 17:05:28;;;;;;;2.97;1.20;;;;;;;;;;5033289;28;20026;-69
2023/01/14 17:08:14;;;;;;;4.93;1.23;;;;;;;;;;5033350;28;20037;-66
2023/01/14 17:11:00;;;;;;;2.05;1.05;;;;;;;;;;5033507;28;20465;-69
2023/01/14 17:13:46;;;;;;;3.58;1.30;;;;;;;;;;5032389;28;20021;-74
2023/01/14 17:16:32;;;;;;;3.72;1.45;;;;;;;;;;5033407;28;20433;-73
2023/01/14 17:19:17;;;;;;;2.47;1.52;;;;;;;;;;5033532;28;20457;-72
2023/01/14 17:22:03;;;;;;;15.05;3.97;;;;;;;;;;5033673;28;20056;-62
2023/01/14 17:24:48;;;;;;;3.47;1.67;;;;;;;;;;5032796;28;20060;-73
2023/01/14 17:27:35;;;;;;;2.33;1.25;;;;;;;;;;5039354;28;20056;-68
2023/01/14 17:30:20;;;;;;;3.67;1.08;;;;;;;;;;5035810;28;20025;-69
2023/01/14 17:33:06;;;;;;;3.75;1.20;;;;;;;;;;5033074;28;20025;-69
2023/01/14 17:35:51;;;;;;;3.13;1.30;;;;;;;;;;5032784;28;20060;-69